Time;durP1;ratioP1;P1;durP2;ratioP2;P2;SDS_P1;SDS_P2;PMS_P1;PMS_P2;Temp;Humidity;BMP_temperature;BMP_pressure;BME280_temperature;BME280_humidity;BME280_pressure;Samples;Min_cycle;Max_cycle;Signal;HPM_P1;HPM_P2
2023/04/11 00:01:19;;;;;;;10.40;9.40;;;;;;;18.01;48.66;99863.27;104392;1252;60444;-66
2023/04/11 00:03:48;;;;;;;10.10;8.60;;;;;;;17.97;48.51;99861.09;104301;1256;73344;-66
2023/04/11 00:06:16;;;;;;;9.90;8.90;;;;;;;17.96;48.45;99856.00;104363;1259;69208;-66
2023/04/11 00:08:46;;;;;;;10.10;9.00;;;;;;;17.94;48.20;99857.23;104488;1269;72831;-66
2023/04/11 00:11:16;;;;;;;9.30;8.40;;;;;;;17.90;48.17;99856.64;104390;1256;62456;-67
2023/04/11 00:13:47;;;;;;;9.70;8.80;;;;;;;17.86;48.07;99859.91;104336;1255;60826;-65
2023/04/11 00:16:19;;;;;;;9.80;8.90;;;;;;;17.78;47.96;99859.15;104456;1256;74059;-65
2023/04/11 00:18:48;;;;;;;10.00;9.00;;;;;;;17.76;47.85;99857.72;104362;1267;70016;-66
2023/04/11 00:21:17;;;;;;;9.70;8.80;;;;;;;17.75;47.89;99857.42;104494;1264;71875;-66
2023/04/11 00:23:47;;;;;;;9.80;8.80;;;;;;;17.74;48.03;99860.34;104279;1262;61219;-65
2023/04/11 00:26:16;;;;;;;10.80;8.40;;;;;;;17.70;48.11;99855.33;104383;1267;61028;-68
2023/04/11 00:28:51;;;;;;;9.90;8.70;;;;;;;17.65;48.13;99852.80;104411;1257;73049;-65
2023/04/11 00:31:23;;;;;;;9.80;8.90;;;;;;;17.64;47.97;99850.36;104378;1256;68637;-65
2023/04/11 00:33:54;;;;;;;10.70;8.90;;;;;;;17.64;47.81;99848.45;104542;1254;74530;-65
2023/04/11 00:36:23;;;;;;;10.10;8.80;;;;;;;17.62;48.15;99847.32;104341;1269;60769;-64
2023/04/11 00:38:57;;;;;;;13.00;9.20;;;;;;;17.63;48.17;99847.23;104496;1250;60562;-65
2023/04/11 00:41:30;;;;;;;9.00;8.20;;;;;;;17.58;48.32;99847.95;104271;1271;74276;-64
2023/04/11 00:44:01;;;;;;;10.60;8.40;;;;;;;17.55;48.29;99844.97;104365;1261;69625;-64
2023/04/11 00:46:31;;;;;;;10.20;8.80;;;;;;;17.54;48.28;99841.19;104391;1257;71989;-64
2023/04/11 00:49:00;;;;;;;9.20;8.30;;;;;;;17.56;48.17;99842.11;104447;1259;61718;-64
2023/04/11 00:51:30;;;;;;;9.00;8.10;;;;;;;17.53;48.21;99842.78;104338;1259;59672;-64
2023/04/11 00:54:00;;;;;;;9.40;8.40;;;;;;;17.53;48.18;99843.32;104315;1256;74173;-63
2023/04/11 00:56:30;;;;;;;9.30;8.40;;;;;;;17.49;48.35;99836.88;104421;1256;68669;-64
2023/04/11 00:59:00;;;;;;;9.30;8.40;;;;;;;17.51;48.21;99841.89;104368;1257;72103;-64
2023/04/11 01:01:29;;;;;;;8.90;8.10;;;;;;;17.53;48.19;99843.51;104273;1254;60758;-64
2023/04/11 01:04:00;;;;;;;9.40;8.20;;;;;;;17.55;47.89;99844.77;104360;1259;60448;-63
2023/04/11 01:06:30;;;;;;;9.60;8.70;;;;;;;17.58;47.63;99848.14;104369;1255;74210;-64
2023/04/11 01:08:59;;;;;;;9.90;8.60;;;;;;;17.55;47.52;99848.88;104318;1273;69771;-64
2023/04/11 01:11:27;;;;;;;9.20;8.30;;;;;;;17.48;47.65;99852.37;104319;1266;72877;-64
2023/04/11 01:13:56;;;;;;;12.00;9.80;;;;;;;17.45;47.72;99848.81;104519;1254;61486;-64
2023/04/11 01:16:25;;;;;;;8.60;7.70;;;;;;;17.42;47.82;99848.52;104329;1257;60532;-65
2023/04/11 01:18:55;;;;;;;9.10;8.30;;;;;;;17.44;47.75;99846.05;104302;1257;73575;-64
2023/04/11 01:21:25;;;;;;;9.60;8.40;;;;;;;17.41;47.75;99850.73;104694;1252;69566;-64
2023/04/11 01:23:55;;;;;;;9.50;8.50;;;;;;;17.41;47.51;99848.98;108433;1251;72172;-65
2023/04/11 01:26:23;;;;;;;8.80;8.00;;;;;;;17.41;47.58;99844.50;105779;1256;60725;-65
2023/04/11 01:28:52;;;;;;;9.20;7.90;;;;;;;17.35;47.73;99845.80;104476;1256;60450;-64
2023/04/11 01:31:21;;;;;;;9.60;8.60;;;;;;;17.31;47.71;99843.58;104315;1264;72896;-65
2023/04/11 01:33:50;;;;;;;8.80;8.00;;;;;;;17.29;47.75;99839.46;104511;1263;69084;-66
2023/04/11 01:36:19;;;;;;;9.50;8.60;;;;;;;17.28;47.52;99835.83;104505;1258;73452;-64
2023/04/11 01:38:49;;;;;;;9.50;8.40;;;;;;;17.26;47.32;99829.21;104407;1274;61365;-64
2023/04/11 01:41:18;;;;;;;9.10;8.20;;;;;;;17.23;47.40;99829.77;104386;1257;60708;-64
2023/04/11 01:43:46;;;;;;;12.00;8.10;;;;;;;17.23;46.96;99826.94;104294;1256;73022;-64
2023/04/11 01:46:15;;;;;;;9.00;8.10;;;;;;;17.24;46.79;99827.59;104374;1257;69553;-64
2023/04/11 01:48:44;;;;;;;10.90;8.90;;;;;;;17.22;46.85;99825.42;104391;1255;71779;-64
2023/04/11 01:51:14;;;;;;;10.20;9.20;;;;;;;17.17;46.97;99824.73;104358;1258;60984;-64
2023/04/11 01:53:46;;;;;;;9.00;8.10;;;;;;;17.12;47.07;99820.41;104559;1255;60526;-65
2023/04/11 01:56:14;;;;;;;8.80;8.00;;;;;;;17.07;46.86;99816.83;104409;1254;73359;-64
2023/04/11 01:58:43;;;;;;;10.00;8.60;;;;;;;17.04;46.83;99822.01;104359;1260;69522;-64
2023/04/11 02:01:18;;;;;;;9.10;8.20;;;;;;;17.00;46.81;99821.23;104441;1257;72809;-64
2023/04/11 02:03:47;;;;;;;9.50;8.50;;;;;;;16.96;46.89;99815.11;104395;1261;61077;-65
2023/04/11 02:06:16;;;;;;;9.40;8.50;;;;;;;17.00;46.66;99817.71;104324;1251;60477;-64
2023/04/11 02:08:52;;;;;;;9.00;8.10;;;;;;;17.01;46.54;99819.05;104373;1257;73851;-65
2023/04/11 02:11:22;;;;;;;9.50;8.60;;;;;;;16.98;46.39;99820.48;104206;1260;69647;-65
2023/04/11 02:13:51;;;;;;;9.50;8.30;;;;;;;16.95;46.41;99818.94;104458;1255;72887;-64
2023/04/11 02:16:24;;;;;;;9.20;8.20;;;;;;;16.94;46.47;99817.18;104276;1255;60885;-64
2023/04/11 02:18:53;;;;;;;9.30;8.40;;;;;;;16.90;46.48;99817.45;104296;1265;59933;-64
2023/04/11 02:21:22;;;;;;;10.10;8.80;;;;;;;16.82;46.76;99814.27;104316;1256;73321;-65
2023/04/11 02:23:54;;;;;;;9.20;8.30;;;;;;;16.76;46.86;99809.30;107123;1251;70004;-65
2023/04/11 02:26:25;;;;;;;8.80;7.90;;;;;;;16.74;46.78;99812.80;108384;1251;72940;-64
2023/04/11 02:28:56;;;;;;;10.80;8.50;;;;;;;16.72;46.53;99807.27;108457;1251;61360;-64
2023/04/11 02:31:27;;;;;;;10.30;8.40;;;;;;;16.71;46.84;99809.28;108363;1253;59486;-64
2023/04/11 02:33:56;;;;;;;9.80;8.00;;;;;;;16.73;46.67;99809.02;108490;1251;72887;-64
2023/04/11 02:36:25;;;;;;;9.50;8.60;;;;;;;16.72;46.74;99807.46;108163;1254;70308;-65
2023/04/11 02:38:54;;;;;;;9.10;8.30;;;;;;;16.70;46.65;99806.48;104262;1254;71995;-63
2023/04/11 02:41:22;;;;;;;9.30;7.90;;;;;;;16.67;46.66;99801.08;104373;1256;61519;-64
2023/04/11 02:43:52;;;;;;;13.30;8.80;;;;;;;16.65;46.48;99799.58;104293;1258;60556;-64
2023/04/11 02:46:22;;;;;;;10.70;9.40;;;;;;;16.65;46.73;99793.77;104273;1257;72936;-65
2023/04/11 02:48:51;;;;;;;9.70;8.40;;;;;;;16.66;46.57;99793.17;104430;1258;69173;-64
2023/04/11 02:51:24;;;;;;;9.00;8.10;;;;;;;16.61;46.54;99793.85;104367;1260;72725;-65
2023/04/11 02:53:53;;;;;;;11.30;8.40;;;;;;;16.54;46.31;99790.21;104350;1254;61414;-65
2023/04/11 02:56:25;;;;;;;9.20;8.30;;;;;;;16.48;46.49;99791.14;104327;1260;60433;-67
2023/04/11 02:58:56;;;;;;;9.40;8.10;;;;;;;16.45;46.51;99789.41;104264;1251;72851;-63
2023/04/11 03:01:26;;;;;;;9.60;8.70;;;;;;;16.42;46.37;99788.21;104436;1252;69920;-65
2023/04/11 03:03:59;;;;;;;10.10;8.40;;;;;;;16.41;46.12;99786.12;104648;1264;72561;-64
2023/04/11 03:06:36;;;;;;;9.40;8.50;;;;;;;16.44;46.20;99788.59;104389;1251;62182;-64
2023/04/11 03:09:05;;;;;;;10.20;8.30;;;;;;;16.42;46.12;99790.48;104628;1251;60463;-67
2023/04/11 03:13:51;;;;;;;10.80;9.50;;;;;;;15.31;51.65;99790.41;101472;1288;616433;-63
2023/04/11 03:16:19;;;;;;;10.80;9.20;;;;;;;16.64;46.56;99787.28;104129;1262;60000;-67
2023/04/11 03:18:48;;;;;;;10.20;9.10;;;;;;;16.67;45.89;99786.88;104442;1259;59561;-66
2023/04/11 03:21:15;;;;;;;11.40;9.90;;;;;;;16.65;45.86;99782.41;104466;1261;71843;-65
2023/04/11 03:23:53;;;;;;;10.00;8.60;;;;;;;16.63;45.74;99782.58;104323;1257;69174;-64
2023/04/11 03:26:25;;;;;;;9.70;8.70;;;;;;;16.61;45.88;99780.75;104345;1259;155352;-64
2023/04/11 03:28:55;;;;;;;10.70;9.60;;;;;;;16.60;45.48;99782.05;104474;1254;61181;-67
2023/04/11 03:31:23;;;;;;;10.70;9.20;;;;;;;16.55;45.52;99784.80;104408;1253;60675;-67
2023/04/11 03:33:50;;;;;;;9.80;8.80;;;;;;;16.50;45.65;99786.95;104341;1258;72506;-67
2023/04/11 03:36:18;;;;;;;9.50;8.70;;;;;;;16.45;45.70;99786.90;104701;1264;68847;-67
2023/04/11 03:38:46;;;;;;;9.70;8.70;;;;;;;16.42;45.80;99787.81;104305;1258;72285;-66
2023/04/11 03:41:14;;;;;;;9.80;8.80;;;;;;;16.39;45.63;99792.79;104337;1253;60220;-64
2023/04/11 03:43:42;;;;;;;8.90;8.00;;;;;;;16.40;45.70;99789.56;104356;1268;61051;-67
2023/04/11 03:46:09;;;;;;;18.70;9.30;;;;;;;16.40;45.85;99789.17;104404;1258;72738;-64
2023/04/11 03:48:40;;;;;;;9.80;8.80;;;;;;;16.39;45.85;99793.65;104351;1256;69079;-63
2023/04/11 03:51:08;;;;;;;10.70;9.50;;;;;;;16.44;45.85;99794.08;104524;1258;72554;-63
2023/04/11 03:53:43;;;;;;;10.50;9.00;;;;;;;16.43;45.40;99791.80;104588;1257;61005;-65
2023/04/11 03:56:20;;;;;;;10.20;8.90;;;;;;;16.44;45.83;99788.60;104376;1256;60600;-65
2023/04/11 03:58:48;;;;;;;9.30;8.40;;;;;;;16.45;45.79;99786.20;104463;1260;72282;-64
2023/04/11 04:01:15;;;;;;;14.70;9.20;;;;;;;16.46;45.74;99784.18;104692;1256;69268;-64
2023/04/11 04:03:43;;;;;;;9.80;8.80;;;;;;;16.46;45.90;99784.02;104419;1258;71846;-64
2023/04/11 04:06:12;;;;;;;11.20;9.40;;;;;;;16.51;45.66;99781.77;104444;1254;61210;-64
2023/04/11 04:08:41;;;;;;;9.70;8.30;;;;;;;16.56;45.32;99776.64;107688;1251;61463;-66
2023/04/11 04:11:09;;;;;;;11.00;9.80;;;;;;;16.61;45.78;99767.48;108240;1253;72734;-67
2023/04/11 04:13:37;;;;;;;10.80;8.60;;;;;;;16.61;45.28;99768.34;107537;1256;69706;-68
2023/04/11 04:16:11;;;;;;;9.80;8.40;;;;;;;16.66;45.36;99763.77;105119;1260;72541;-67
2023/04/11 04:18:40;;;;;;;10.10;9.00;;;;;;;16.65;45.52;99760.30;106988;1252;60363;-69
2023/04/11 04:21:07;;;;;;;8.70;7.80;;;;;;;16.65;45.80;99760.15;104652;1273;59883;-69
2023/04/11 04:23:34;;;;;;;10.80;8.70;;;;;;;16.64;45.63;99758.23;104386;1259;73324;-66
2023/04/11 04:26:23;;;;;;;9.80;8.00;;;;;;;16.69;45.23;99749.95;104298;1261;69189;-69
2023/04/11 04:29:08;;;;;;;14.20;8.70;;;;;;;16.78;45.34;99745.27;104580;1254;72404;-65
2023/04/11 04:31:51;;;;;;;12.80;9.00;;;;;;;16.81;45.39;99742.80;104352;1261;61013;-67
2023/04/11 04:34:23;;;;;;;9.10;8.20;;;;;;;16.87;45.31;99744.55;104931;1254;61062;-66
2023/04/11 04:36:55;;;;;;;8.60;7.80;;;;;;;16.91;45.15;99738.83;105563;1254;72435;-66
2023/04/11 04:39:28;;;;;;;9.00;8.10;;;;;;;17.03;44.75;99738.52;104387;1258;70786;-66
2023/04/11 04:42:00;;;;;;;10.60;8.60;;;;;;;17.11;45.11;99739.89;104484;1256;72558;-65
2023/04/11 04:44:53;;;;;;;10.70;7.80;;;;;;;17.19;44.63;99733.88;104385;1265;64413;-65
2023/04/11 04:47:24;;;;;;;9.30;7.60;;;;;;;17.27;44.63;99733.32;104381;1258;60009;-66
2023/04/11 04:49:55;;;;;;;9.10;8.10;;;;;;;17.36;44.54;99735.39;104331;1267;72368;-66
2023/04/11 04:52:26;;;;;;;8.80;8.00;;;;;;;17.46;44.63;99732.56;104452;1255;69890;-65
2023/04/11 04:54:56;;;;;;;9.10;8.20;;;;;;;17.53;44.19;99731.38;104251;1257;72843;-65
2023/04/11 04:57:30;;;;;;;8.60;7.70;;;;;;;17.59;43.71;99731.62;104367;1258;61636;-65
2023/04/11 04:59:59;;;;;;;13.70;7.50;;;;;;;17.68;43.34;99726.20;104406;1256;59754;-66
2023/04/11 05:02:26;;;;;;;8.00;7.20;;;;;;;17.76;43.24;99731.83;104353;1254;72447;-65
2023/04/11 05:04:55;;;;;;;9.30;8.00;;;;;;;17.84;43.69;99730.42;104412;1274;68859;-65
2023/04/11 05:07:22;;;;;;;8.60;7.60;;;;;;;17.92;43.29;99725.43;104317;1258;72937;-65
2023/04/11 05:09:50;;;;;;;11.10;7.60;;;;;;;18.00;42.58;99725.59;104309;1256;61200;-65
2023/04/11 05:12:25;;;;;;;11.00;7.40;;;;;;;18.10;42.73;99720.92;104272;1257;61342;-64
2023/04/11 05:14:55;;;;;;;8.30;7.50;;;;;;;18.18;42.74;99720.31;104329;1257;73337;-65
2023/04/11 05:17:26;;;;;;;9.30;7.50;;;;;;;18.26;42.46;99720.46;104355;1256;69631;-65
2023/04/11 05:19:55;;;;;;;9.60;7.70;;;;;;;18.34;42.16;99725.23;104427;1257;71830;-66
2023/04/11 05:22:22;;;;;;;7.30;6.60;;;;;;;18.48;41.46;99724.75;104379;1271;61570;-65
2023/04/11 05:24:55;;;;;;;8.50;6.70;;;;;;;18.63;42.20;99718.58;108507;1252;60614;-66
2023/04/11 05:27:22;;;;;;;8.80;7.30;;;;;;;18.73;41.79;99721.63;108291;1254;73005;-66
2023/04/11 05:29:50;;;;;;;8.90;7.30;;;;;;;18.83;42.15;99721.41;108444;1254;69792;-66
2023/04/11 05:32:20;;;;;;;7.40;6.70;;;;;;;18.99;42.14;99718.77;108278;1251;72424;-66
2023/04/11 05:34:54;;;;;;;8.50;7.50;;;;;;;19.06;42.37;99713.77;105879;1256;61740;-65
2023/04/11 05:37:45;;;;;;;10.40;6.30;;;;;;;19.22;40.82;99710.64;104883;1252;60128;-65
2023/04/11 05:40:13;;;;;;;11.90;6.70;;;;;;;19.32;41.17;99712.52;104519;1259;72565;-64
2023/04/11 05:42:41;;;;;;;10.10;6.80;;;;;;;19.34;40.22;99707.38;104378;1260;68656;-65
2023/04/11 05:45:11;;;;;;;9.10;7.10;;;;;;;19.42;40.68;99705.52;104463;1270;72046;-65
2023/04/11 05:47:38;;;;;;;10.60;7.90;;;;;;;19.50;40.54;99707.35;104318;1259;62057;-65
2023/04/11 05:50:07;;;;;;;10.10;6.90;;;;;;;19.59;40.07;99707.17;104335;1252;59854;-65
2023/04/11 05:52:34;;;;;;;7.80;6.90;;;;;;;19.71;40.12;99707.86;104477;1253;72868;-65
2023/04/11 05:55:03;;;;;;;10.00;7.10;;;;;;;19.81;40.47;99710.05;104235;1256;69292;-64
2023/04/11 05:57:31;;;;;;;8.30;7.30;;;;;;;19.90;40.06;99707.64;104405;1254;72797;-64
2023/04/11 06:00:00;;;;;;;7.00;6.10;;;;;;;19.94;40.43;99709.58;104296;1263;61063;-65
2023/04/11 06:02:29;;;;;;;6.20;5.60;;;;;;;20.08;39.76;99709.67;104229;1256;61461;-65
2023/04/11 06:04:56;;;;;;;8.90;6.20;;;;;;;20.17;39.50;99706.44;104418;1251;72031;-64
2023/04/11 06:07:26;;;;;;;6.60;5.80;;;;;;;20.26;39.53;99706.94;104266;1256;68923;-66
2023/04/11 06:09:53;;;;;;;9.00;5.40;;;;;;;20.36;39.17;99700.66;104360;1256;72090;-65
2023/04/11 06:12:21;;;;;;;7.20;5.10;;;;;;;20.46;38.75;99700.66;104380;1261;61943;-64
2023/04/11 06:14:49;;;;;;;5.30;4.80;;;;;;;20.58;38.41;99698.52;104541;1254;60675;-65
2023/04/11 06:17:16;;;;;;;8.60;5.90;;;;;;;20.61;39.23;99696.67;104377;1255;73914;-66
2023/04/11 06:19:46;;;;;;;5.70;5.00;;;;;;;20.67;38.53;99700.19;104302;1274;70023;-68
2023/04/11 06:22:13;;;;;;;5.90;5.30;;;;;;;20.77;38.78;99694.98;104375;1256;72093;-65
2023/04/11 06:24:41;;;;;;;5.70;4.70;;;;;;;20.88;38.59;99696.32;104370;1255;62032;-65
2023/04/11 06:27:12;;;;;;;9.20;5.20;;;;;;;20.93;38.89;99695.19;104350;1255;59664;-65
2023/04/11 06:29:40;;;;;;;5.00;4.50;;;;;;;20.96;38.61;99693.55;104298;1255;73286;-66
2023/04/11 06:32:07;;;;;;;7.00;4.90;;;;;;;21.06;38.93;99693.35;104326;1267;68987;-65
2023/04/11 06:34:34;;;;;;;6.50;4.20;;;;;;;21.17;38.48;99689.42;104330;1257;72925;-66
2023/04/11 06:37:02;;;;;;;5.90;4.50;;;;;;;21.30;38.31;99689.14;104484;1256;61379;-64
2023/04/11 06:39:29;;;;;;;4.60;4.00;;;;;;;21.39;38.55;99688.59;104358;1269;60355;-65
2023/04/11 06:41:56;;;;;;;4.90;4.00;;;;;;;21.47;37.96;99686.98;104468;1274;72164;-65
2023/04/11 06:44:24;;;;;;;;;;;;;;;21.52;38.44;99682.98;104371;1254;69836;-65
2023/04/11 06:46:59;;;;;;;5.50;4.10;;;;;;;21.54;38.08;99685.83;104366;1255;71789;-65
2023/04/11 06:49:27;;;;;;;;;;;;;;;21.56;37.92;99679.49;104400;1257;59900;-64
2023/04/11 06:51:54;;;;;;;4.20;3.80;;;;;;;21.69;38.03;99678.41;104402;1270;59749;-65
2023/04/11 06:54:23;;;;;;;7.70;4.20;;;;;;;21.65;37.04;99677.36;104413;1263;72933;-64
2023/04/11 06:56:50;;;;;;;4.00;3.50;;;;;;;21.72;37.78;99677.80;104367;1271;69524;-65
2023/04/11 06:59:23;;;;;;;4.00;3.60;;;;;;;21.76;38.05;99676.41;104476;1257;72991;-65
2023/04/11 07:01:51;;;;;;;4.30;3.80;;;;;;;21.71;37.96;99678.64;104311;1258;60646;-66
2023/04/11 07:04:18;;;;;;;4.50;3.70;;;;;;;21.75;38.13;99676.66;104329;1251;60566;-65
2023/04/11 07:06:49;;;;;;;5.50;3.80;;;;;;;21.75;36.85;99673.87;104448;1256;72307;-65
2023/04/11 07:09:17;;;;;;;6.90;4.00;;;;;;;21.79;36.80;99672.95;104377;1275;68593;-66
2023/04/11 07:11:45;;;;;;;4.10;3.60;;;;;;;21.83;37.55;99668.82;104276;1259;72209;-65
2023/04/11 07:14:16;;;;;;;6.50;3.90;;;;;;;21.89;37.42;99667.65;104348;1257;59762;-64
2023/04/11 07:16:43;;;;;;;6.70;3.80;;;;;;;21.94;37.45;99662.33;104330;1263;59774;-65
2023/04/11 07:19:10;;;;;;;4.50;4.00;;;;;;;21.99;37.32;99658.85;104211;1270;73356;-65
2023/04/11 07:21:37;;;;;;;4.90;4.00;;;;;;;22.07;37.20;99660.65;104498;1260;68654;-64
2023/04/11 07:24:05;;;;;;;5.70;3.80;;;;;;;22.15;36.90;99652.78;104434;1255;73488;-65
2023/04/11 07:26:34;;;;;;;4.50;3.50;;;;;;;22.24;37.29;99653.55;104473;1264;60457;-65
2023/04/11 07:29:01;;;;;;;5.10;3.80;;;;;;;22.30;37.11;99649.66;104373;1267;61149;-64
2023/04/11 07:31:28;;;;;;;4.10;3.60;;;;;;;22.30;36.69;99641.79;104446;1254;73011;-65
2023/04/11 07:33:55;;;;;;;5.20;3.40;;;;;;;22.30;36.13;99638.91;104402;1258;69698;-65
2023/04/11 07:36:25;;;;;;;6.90;3.90;;;;;;;22.33;36.40;99633.63;104331;1260;72688;-65
2023/04/11 07:38:52;;;;;;;3.90;3.50;;;;;;;22.37;36.54;99631.64;104332;1260;62295;-64
2023/04/11 07:41:20;;;;;;;3.70;3.20;;;;;;;22.42;36.01;99625.92;104381;1260;60555;-68
2023/04/11 07:43:47;;;;;;;4.10;3.50;;;;;;;22.40;36.13;99622.00;104285;1257;74163;-65
2023/04/11 07:46:14;;;;;;;4.10;3.50;;;;;;;22.45;36.21;99621.10;104514;1255;69604;-65
2023/04/11 07:48:44;;;;;;;4.90;3.30;;;;;;;22.48;35.78;99618.55;104302;1255;71735;-64
2023/04/11 07:51:11;;;;;;;3.50;3.20;;;;;;;22.46;35.92;99621.96;104349;1258;60565;-69
2023/04/11 07:53:38;;;;;;;4.90;3.50;;;;;;;22.51;36.21;99625.20;104338;1270;61006;-65
2023/04/11 07:56:05;;;;;;;4.50;3.20;;;;;;;22.52;36.18;99623.45;104404;1255;74177;-65
2023/04/11 07:58:32;;;;;;;3.50;3.20;;;;;;;22.48;35.14;99623.34;104328;1258;69383;-65
2023/04/11 08:01:01;;;;;;;6.40;3.50;;;;;;;22.50;35.49;99629.40;104373;1266;71746;-65
2023/04/11 08:03:30;;;;;;;3.40;3.00;;;;;;;22.49;34.85;99620.79;104280;1259;60937;-65
2023/04/11 08:05:58;;;;;;;4.60;3.50;;;;;;;22.58;35.61;99626.73;104327;1261;62379;-65
2023/04/11 08:08:29;;;;;;;4.70;3.20;;;;;;;22.61;34.63;99619.44;104405;1254;73360;-66
2023/04/11 08:10:56;;;;;;;3.60;3.30;;;;;;;22.62;35.02;99613.27;104305;1257;68806;-66
2023/04/11 08:13:23;;;;;;;5.60;3.30;;;;;;;22.71;35.13;99608.00;104332;1259;71759;-65
2023/04/11 08:15:51;;;;;;;3.40;3.10;;;;;;;22.77;35.16;99603.50;104230;1258;60731;-65
2023/04/11 08:18:23;;;;;;;4.30;3.10;;;;;;;22.80;35.08;99603.04;104386;1254;62211;-66
2023/04/11 08:20:49;;;;;;;4.90;3.30;;;;;;;22.84;35.15;99601.58;104403;1254;72876;-65
2023/04/11 08:23:20;;;;;;;5.00;3.20;;;;;;;22.89;34.91;99598.58;104383;1257;69970;-65
2023/04/11 08:25:47;;;;;;;6.30;3.50;;;;;;;22.98;34.89;99592.80;104322;1257;71995;-65
2023/04/11 08:28:14;;;;;;;5.70;3.60;;;;;;;23.06;34.87;99596.32;104436;1258;60587;-65
2023/04/11 08:30:42;;;;;;;4.60;2.80;;;;;;;23.18;34.93;99590.14;104369;1261;60635;-66
2023/04/11 08:33:11;;;;;;;;;;;;;;;23.28;34.77;99588.23;104388;1260;73182;-65
2023/04/11 08:35:41;;;;;;;;;;;;;;;23.41;34.27;99582.89;104280;1257;68560;-68
2023/04/11 08:38:09;;;;;;;3.20;2.80;;;;;;;23.39;34.36;99578.28;104794;1253;72001;-66
2023/04/11 08:40:36;;;;;;;7.00;2.80;;;;;;;23.38;34.53;99574.14;104519;1254;60562;-64
2023/04/11 08:43:08;;;;;;;4.50;2.90;;;;;;;23.45;34.56;99572.55;104555;1254;60608;-64
2023/04/11 08:45:35;;;;;;;4.70;3.10;;;;;;;23.54;34.20;99568.21;104585;1253;73087;-63
2023/04/11 08:48:03;;;;;;;4.40;3.00;;;;;;;23.62;34.40;99565.95;104509;1255;70539;-62
2023/04/11 08:50:30;;;;;;;3.00;2.80;;;;;;;23.70;34.54;99564.88;104679;1255;73162;-63
2023/04/11 08:53:02;;;;;;;4.50;2.90;;;;;;;23.77;33.90;99561.19;104471;1254;61016;-62
2023/04/11 08:55:30;;;;;;;5.60;3.40;;;;;;;23.88;33.85;99556.37;104448;1257;60821;-63
2023/04/11 08:58:01;;;;;;;2.90;2.70;;;;;;;23.94;34.14;99555.16;104153;1260;73644;-61
2023/04/11 09:00:31;;;;;;;5.50;3.20;;;;;;;23.94;33.91;99552.86;104466;1256;69773;-65
2023/04/11 09:03:02;;;;;;;5.70;3.30;;;;;;;23.97;33.85;99547.77;104601;1257;71768;-64
2023/04/11 09:05:38;;;;;;;;;;;;;;;24.00;33.76;99541.86;104445;1265;60914;-66
2023/04/11 09:08:08;;;;;;;3.90;2.60;;;;;;;24.14;33.59;99540.86;104497;1253;60575;-64
2023/04/11 09:10:36;;;;;;;4.50;2.60;;;;;;;24.22;33.77;99542.02;104398;1257;74073;-66
2023/04/11 09:13:22;;;;;;;3.40;3.10;;;;;;;24.32;33.28;99534.14;104287;1255;68984;-67
2023/04/11 09:16:09;;;;;;;2.80;2.60;;;;;;;24.46;33.84;99525.96;104768;1254;72713;-65
2023/04/11 09:18:37;;;;;;;3.60;3.10;;;;;;;24.58;34.06;99527.63;104497;1256;61428;-65
2023/04/11 09:21:09;;;;;;;3.10;2.50;;;;;;;24.62;33.60;99522.18;104362;1258;60513;-66
2023/04/11 09:23:37;;;;;;;3.90;2.50;;;;;;;24.74;34.07;99518.38;104421;1254;75583;-65
2023/04/11 09:26:05;;;;;;;4.30;2.40;;;;;;;24.89;33.87;99516.88;104585;1257;69002;-63
2023/04/11 09:28:52;;;;;;;2.90;2.60;;;;;;;25.00;33.96;99511.34;104676;1255;72599;-63
2023/04/11 09:31:20;;;;;;;2.80;2.60;;;;;;;25.17;33.77;99509.73;105018;1257;60550;-62
2023/04/11 09:33:54;;;;;;;3.00;2.70;;;;;;;25.28;33.48;99501.64;104644;1260;61552;-63
2023/04/11 09:36:22;;;;;;;2.60;2.40;;;;;;;25.39;33.54;99497.61;104796;1270;73290;-62
2023/04/11 09:38:52;;;;;;;4.10;2.50;;;;;;;25.50;33.95;99500.52;104591;1254;69681;-62
2023/04/11 09:41:30;;;;;;;4.30;2.30;;;;;;;25.58;34.05;99489.94;104392;1257;73210;-62
2023/04/11 09:43:57;;;;;;;3.10;2.20;;;;;;;25.75;34.06;99485.11;105144;1255;60656;-63
2023/04/11 09:46:24;;;;;;;2.30;2.10;;;;;;;25.90;33.56;99483.62;104692;1254;60983;-64
2023/04/11 09:48:53;;;;;;;3.70;2.30;;;;;;;26.01;33.98;99476.05;104877;1254;73599;-62
2023/04/11 09:51:20;;;;;;;3.40;2.60;;;;;;;26.09;33.67;99468.98;104516;1257;69105;-62
2023/04/11 09:54:03;;;;;;;2.60;1.90;;;;;;;26.12;33.27;99471.77;104357;1260;73237;-62
2023/04/11 09:56:33;;;;;;;2.80;2.10;;;;;;;26.15;33.20;99465.70;104338;1259;60571;-62
2023/04/11 09:59:00;;;;;;;3.00;2.40;;;;;;;26.19;33.32;99467.05;104388;1254;60568;-63
2023/04/11 10:01:27;;;;;;;3.40;2.30;;;;;;;26.23;33.31;99466.02;104338;1271;73164;-62
2023/04/11 10:03:54;;;;;;;4.50;2.10;;;;;;;26.32;33.32;99465.40;104366;1257;68779;-62
2023/04/11 10:07:02;;;;;;;3.10;2.10;;;;;;;26.41;33.19;99459.18;104343;1258;71909;-62
2023/04/11 10:09:31;;;;;;;2.10;2.00;;;;;;;26.55;33.33;99455.24;104580;1264;60696;-61
2023/04/11 10:12:01;;;;;;;2.30;2.10;;;;;;;26.64;32.86;99452.16;104505;1254;60548;-63
2023/04/11 10:14:38;;;;;;;2.20;2.10;;;;;;;26.65;32.98;99448.55;104401;1256;73741;-63
2023/04/11 10:17:14;;;;;;;2.20;2.00;;;;;;;26.69;33.23;99448.52;104499;1256;68918;-63
2023/04/11 10:19:46;;;;;;;2.20;2.00;;;;;;;26.69;32.95;99445.52;104234;1276;73154;-65
2023/04/11 10:22:42;;;;;;;2.50;2.30;;;;;;;26.64;33.15;99446.18;105027;1253;60555;-67
2023/04/11 10:25:15;;;;;;;2.90;2.40;;;;;;;26.69;33.02;99441.16;104401;1254;61523;-62
2023/04/11 10:27:48;;;;;;;3.10;2.10;;;;;;;26.66;33.14;99437.16;104701;1254;73208;-61
2023/04/11 10:30:15;;;;;;;3.30;2.00;;;;;;;26.67;33.09;99435.79;104314;1262;70372;-61
2023/04/11 10:33:08;;;;;;;2.80;2.20;;;;;;;26.74;33.44;99433.59;104569;1253;72959;-62
2023/04/11 10:35:35;;;;;;;2.50;2.30;;;;;;;26.84;33.02;99428.66;104408;1253;60556;-61
2023/04/11 10:38:02;;;;;;;2.60;2.40;;;;;;;26.84;32.99;99421.14;104324;1272;60559;-62
2023/04/11 10:40:29;;;;;;;2.30;2.10;;;;;;;26.87;32.62;99414.66;104371;1253;72842;-60
2023/04/11 10:42:57;;;;;;;2.50;2.20;;;;;;;26.92;32.75;99412.80;104668;1254;69539;-61
2023/04/11 10:45:27;;;;;;;2.70;2.40;;;;;;;26.96;32.87;99403.34;104210;1277;73852;-64
2023/04/11 10:47:57;;;;;;;2.50;2.20;;;;;;;27.04;32.81;99401.86;104489;1253;60556;-62
2023/04/11 10:50:28;;;;;;;2.60;2.40;;;;;;;26.96;32.53;99399.37;104641;1257;60546;-61
2023/04/11 10:53:03;;;;;;;3.30;2.00;;;;;;;26.94;32.80;99397.75;104572;1254;74074;-62
2023/04/11 10:55:47;;;;;;;3.90;2.30;;;;;;;26.97;32.65;99396.93;104340;1269;69987;-62
2023/04/11 10:58:18;;;;;;;2.50;2.30;;;;;;;27.01;32.61;99397.75;104379;1254;72302;-63
2023/04/11 11:00:46;;;;;;;3.10;1.90;;;;;;;26.98;32.53;99398.10;104491;1257;60571;-65
2023/04/11 11:03:23;;;;;;;2.50;2.20;;;;;;;26.95;32.53;99399.10;104383;1253;60552;-63
2023/04/11 11:05:57;;;;;;;4.20;2.30;;;;;;;26.90;32.44;99390.23;104898;1255;74825;-66
2023/04/11 11:08:33;;;;;;;2.00;1.80;;;;;;;26.86;32.29;99389.03;104809;1254;69065;-63
2023/04/11 11:11:01;;;;;;;2.90;2.10;;;;;;;26.84;32.17;99388.23;104295;1253;73198;-65
2023/04/11 11:13:42;;;;;;;2.10;1.90;;;;;;;26.81;32.18;99389.40;104395;1257;60743;-64
2023/04/11 11:16:13;;;;;;;2.90;2.30;;;;;;;26.78;32.01;99389.05;104342;1252;60540;-61
2023/04/11 11:18:40;;;;;;;5.20;2.20;;;;;;;26.73;32.02;99388.52;104475;1262;74420;-62
2023/04/11 11:21:07;;;;;;;2.70;1.70;;;;;;;26.58;31.91;99386.05;104485;1258;69735;-61
2023/04/11 11:23:53;;;;;;;2.70;1.90;;;;;;;26.54;31.94;99386.43;104706;1258;73733;-64
2023/04/11 11:26:20;;;;;;;2.60;2.20;;;;;;;26.48;32.04;99382.80;104368;1262;60533;-61
2023/04/11 11:28:47;;;;;;;3.40;1.80;;;;;;;26.48;32.04;99379.48;107921;1253;60243;-62
2023/04/11 11:31:14;;;;;;;2.30;2.00;;;;;;;26.50;31.91;99380.04;106963;1253;73342;-62
2023/04/11 11:33:41;;;;;;;2.30;2.00;;;;;;;26.55;32.09;99374.54;104458;1253;69853;-62
2023/04/11 11:36:10;;;;;;;2.00;1.80;;;;;;;26.54;31.89;99366.25;104680;1254;71651;-61
2023/04/11 11:38:37;;;;;;;3.60;2.30;;;;;;;26.60;31.98;99369.49;104408;1256;60486;-61
2023/04/11 11:41:04;;;;;;;2.30;2.10;;;;;;;26.66;31.29;99369.57;104297;1254;60585;-61